Time;durP1;ratioP1;P1;durP2;ratioP2;P2;SDS_P1;SDS_P2;PMS_P1;PMS_P2;Temp;Humidity;BMP_temperature;BMP_pressure;BME280_temperature;BME280_humidity;BME280_pressure;Samples;Min_cycle;Max_cycle;Signal;HPM_P1;HPM_P2
2021/09/04 00:00:01;;;;;;;0.45;0.28;;;22.00;76.20;;;;;;5032421;28;20025;-59
2021/09/04 00:02:27;;;;;;;1.30;0.63;;;22.00;76.20;;;;;;5027851;28;20056;-59
2021/09/04 00:04:54;;;;;;;1.77;1.20;;;22.00;76.20;;;;;;5025853;28;20108;-59
2021/09/04 00:07:20;;;;;;;0.00;0.00;;;22.00;76.20;;;;;;5040058;28;20021;-59
2021/09/04 00:09:46;;;;;;;0.17;0.17;;;22.00;76.20;;;;;;5042457;28;20037;-59
2021/09/04 00:12:13;;;;;;;1.48;0.10;;;22.00;76.30;;;;;;5029902;28;20421;-59
2021/09/04 00:14:39;;;;;;;1.10;0.45;;;22.00;76.20;;;;;;5030070;28;20036;-59
2021/09/04 00:17:06;;;;;;;0.00;0.00;;;22.00;76.20;;;;;;5030186;28;20124;-59
2021/09/04 00:19:32;;;;;;;0.77;0.15;;;22.00;76.20;;;;;;5026723;28;20029;-59
2021/09/04 00:21:59;;;;;;;0.28;0.28;;;22.00;76.30;;;;;;5032164;28;20026;-59
2021/09/04 00:24:25;;;;;;;1.00;0.63;;;22.00;76.20;;;;;;5032673;28;20021;-59
2021/09/04 00:26:51;;;;;;;0.20;0.20;;;22.00;76.20;;;;;;5031033;28;20029;-59
2021/09/04 00:29:18;;;;;;;0.00;0.00;;;22.00;76.20;;;;;;5032083;28;20033;-59
2021/09/04 00:31:45;;;;;;;0.13;0.13;;;22.00;76.20;;;;;;5028231;28;20018;-59
2021/09/04 00:34:11;;;;;;;0.10;0.10;;;22.10;76.30;;;;;;5016202;28;20029;-59
2021/09/04 00:36:37;;;;;;;0.32;0.17;;;22.10;76.30;;;;;;5032872;28;20208;-59
2021/09/04 00:39:04;;;;;;;0.03;0.03;;;22.00;76.30;;;;;;5037249;28;20032;-59
2021/09/04 00:41:34;;;;;;;0.20;0.17;;;22.00;76.20;;;;;;5036081;28;20486;-59
2021/09/04 00:44:02;;;;;;;2.22;1.00;;;22.00;76.20;;;;;;5035754;28;20036;-59
2021/09/04 00:46:28;;;;;;;0.63;0.10;;;22.00;76.20;;;;;;5025777;28;20359;-59
2021/09/04 00:48:55;;;;;;;0.00;0.00;;;22.00;76.30;;;;;;5033926;28;20468;-59
2021/09/04 00:51:21;;;;;;;0.30;0.30;;;22.00;76.20;;;;;;5018559;28;20509;-59
2021/09/04 00:53:47;;;;;;;0.00;0.00;;;22.10;76.80;;;;;;5031135;28;20112;-59
2021/09/04 00:56:15;;;;;;;0.77;0.20;;;22.10;76.30;;;;;;5028598;28;20033;-59
2021/09/04 00:58:42;;;;;;;0.10;0.10;;;22.10;76.30;;;;;;5033461;28;20099;-59
2021/09/04 01:01:08;;;;;;;0.30;0.15;;;22.00;76.20;;;;;;5036905;28;20111;-59
2021/09/04 01:03:35;;;;;;;0.80;0.70;;;22.10;76.30;;;;;;5037108;28;20017;-59
2021/09/04 01:06:01;;;;;;;0.00;0.00;;;22.00;76.30;;;;;;5034124;28;20080;-59
2021/09/04 01:08:29;;;;;;;0.38;0.05;;;22.10;76.30;;;;;;5017104;28;20109;-59
2021/09/04 01:10:55;;;;;;;0.25;0.20;;;22.10;76.30;;;;;;5017079;28;20108;-59
2021/09/04 01:13:22;;;;;;;0.05;0.05;;;22.00;76.20;;;;;;5018726;28;20033;-59
2021/09/04 01:15:49;;;;;;;0.10;0.10;;;22.10;76.30;;;;;;5016999;28;20519;-59
2021/09/04 01:18:16;;;;;;;0.03;0.03;;;22.00;76.20;;;;;;5036370;28;20037;-59
2021/09/04 01:20:43;;;;;;;0.00;0.00;;;22.00;76.20;;;;;;5036016;28;20033;-59
2021/09/04 01:23:10;;;;;;;0.20;0.20;;;22.00;76.20;;;;;;5036762;28;20360;-59
2021/09/04 01:25:41;;;;;;;0.90;0.10;;;22.00;76.20;;;;;;5036387;28;20079;-59
2021/09/04 01:28:08;;;;;;;0.00;0.00;;;22.00;76.20;;;;;;5036708;28;20481;-59
2021/09/04 01:30:35;;;;;;;0.43;0.20;;;22.00;76.20;;;;;;5036547;28;20529;-59
2021/09/04 01:33:01;;;;;;;0.00;0.00;;;22.00;76.20;;;;;;5036514;28;20328;-59
2021/09/04 01:35:28;;;;;;;0.55;0.50;;;22.00;76.10;;;;;;5035969;28;20033;-59
2021/09/04 01:37:54;;;;;;;0.20;0.20;;;22.00;76.10;;;;;;5036092;28;20403;-59
2021/09/04 01:40:21;;;;;;;0.00;0.00;;;22.00;76.10;;;;;;5031188;28;20352;-59
2021/09/04 01:42:49;;;;;;;1.75;0.63;;;22.00;76.10;;;;;;5016483;28;20033;-59
2021/09/04 01:45:15;;;;;;;0.08;0.08;;;22.00;76.10;;;;;;5025415;28;20025;-59
2021/09/04 01:47:42;;;;;;;0.00;0.00;;;22.00;76.00;;;;;;5030385;28;20589;-59
2021/09/04 01:50:10;;;;;;;0.00;0.00;;;22.00;76.00;;;;;;5026790;28;20042;-59
2021/09/04 01:52:55;;;;;;;0.77;0.38;;;22.00;76.20;;;;;;5024549;28;20459;-56
2021/09/04 01:55:22;;;;;;;0.25;0.00;;;22.00;76.10;;;;;;5028252;28;20041;-56
2021/09/04 01:57:49;;;;;;;0.15;0.03;;;22.00;76.20;;;;;;5034436;28;20036;-54
2021/09/04 02:00:16;;;;;;;0.45;0.32;;;22.00;76.10;;;;;;5031542;28;20059;-55
2021/09/04 02:02:43;;;;;;;0.00;0.00;;;22.00;76.10;;;;;;5034346;28;20356;-57
2021/09/04 02:05:11;;;;;;;0.63;0.38;;;22.00;75.80;;;;;;5040795;28;20021;-56
2021/09/04 02:07:38;;;;;;;0.20;0.20;;;22.00;75.80;;;;;;5029968;28;20510;-57
2021/09/04 02:10:06;;;;;;;0.80;0.75;;;22.00;75.60;;;;;;5030191;28;20062;-57
2021/09/04 02:12:33;;;;;;;0.10;0.10;;;22.00;75.50;;;;;;5032365;28;20029;-57
2021/09/04 02:14:59;;;;;;;0.00;0.00;;;22.00;75.40;;;;;;5028466;28;20515;-57
2021/09/04 02:17:25;;;;;;;0.00;0.00;;;21.90;75.20;;;;;;5032138;28;20026;-57
2021/09/04 02:19:52;;;;;;;2.38;1.48;;;22.00;75.20;;;;;;5029759;28;20022;-57
2021/09/04 02:22:18;;;;;;;0.63;0.50;;;22.00;75.30;;;;;;5031094;28;20104;-57
2021/09/04 02:24:45;;;;;;;0.30;0.30;;;22.00;75.10;;;;;;5031097;28;20025;-58
2021/09/04 02:27:12;;;;;;;0.47;0.38;;;21.90;75.00;;;;;;5030454;28;20121;-57
2021/09/04 02:29:38;;;;;;;0.20;0.20;;;21.90;74.90;;;;;;5025680;28;20351;-57
2021/09/04 02:32:05;;;;;;;0.38;0.35;;;21.90;74.90;;;;;;5027710;28;20021;-56
2021/09/04 02:34:31;;;;;;;0.00;0.00;;;21.90;74.90;;;;;;5030078;28;20065;-58
2021/09/04 02:36:58;;;;;;;0.22;0.22;;;21.90;74.80;;;;;;5030659;28;20025;-57
2021/09/04 02:39:24;;;;;;;1.60;0.73;;;21.90;75.00;;;;;;5029167;28;20406;-57
2021/09/04 02:41:50;;;;;;;0.10;0.10;;;21.90;75.00;;;;;;5032895;28;20021;-57
2021/09/04 02:44:17;;;;;;;1.42;0.93;;;21.90;75.00;;;;;;5027558;28;20106;-56
2021/09/04 02:46:43;;;;;;;0.40;0.40;;;21.90;74.90;;;;;;5027216;28;20033;-57
2021/09/04 02:49:10;;;;;;;0.10;0.08;;;21.90;74.80;;;;;;5025823;28;20104;-56
2021/09/04 02:51:37;;;;;;;0.65;0.10;;;21.80;74.70;;;;;;5029192;28;20036;-56
2021/09/04 02:54:04;;;;;;;2.08;0.35;;;21.80;74.60;;;;;;5031571;28;20025;-57
2021/09/04 02:56:30;;;;;;;0.38;0.32;;;21.80;74.60;;;;;;5029419;28;20037;-57
2021/09/04 02:58:56;;;;;;;0.15;0.15;;;21.80;74.60;;;;;;5026594;28;20557;-57
2021/09/04 03:01:23;;;;;;;0.00;0.00;;;21.80;74.40;;;;;;5028996;28;20025;-56
2021/09/04 03:03:49;;;;;;;0.30;0.30;;;21.80;74.40;;;;;;5023721;28;20018;-56
2021/09/04 03:06:16;;;;;;;0.28;0.25;;;21.80;74.50;;;;;;5027099;28;20029;-57
2021/09/04 03:08:42;;;;;;;2.20;0.30;;;21.80;74.60;;;;;;5029349;28;20021;-57
2021/09/04 03:11:08;;;;;;;0.10;0.10;;;21.80;74.60;;;;;;5030823;28;20030;-57
2021/09/04 03:13:35;;;;;;;0.45;0.45;;;21.70;74.50;;;;;;5030583;28;20095;-57
2021/09/04 03:16:01;;;;;;;1.90;0.47;;;21.70;74.40;;;;;;5031772;28;20348;-55
2021/09/04 03:18:28;;;;;;;0.00;0.00;;;21.70;74.40;;;;;;5034076;28;20038;-57
2021/09/04 03:20:54;;;;;;;1.08;0.45;;;21.70;74.70;;;;;;5025881;28;20022;-57
2021/09/04 03:23:20;;;;;;;0.22;0.10;;;21.70;74.70;;;;;;5031146;28;20386;-57
2021/09/04 03:25:47;;;;;;;1.70;0.88;;;21.70;74.50;;;;;;5025579;28;20087;-56
2021/09/04 03:28:13;;;;;;;0.05;0.05;;;21.70;74.40;;;;;;5033663;28;20052;-56
2021/09/04 03:30:40;;;;;;;1.17;0.63;;;21.70;74.40;;;;;;5028132;28;20036;-57
2021/09/04 03:33:06;;;;;;;1.38;0.98;;;21.70;74.40;;;;;;5017872;28;20025;-55
2021/09/04 03:35:33;;;;;;;1.35;0.52;;;21.70;74.40;;;;;;5022519;28;20117;-56
2021/09/04 03:37:59;;;;;;;0.00;0.00;;;21.70;75.00;;;;;;5026458;28;20037;-57
2021/09/04 03:40:25;;;;;;;0.00;0.00;;;21.70;74.30;;;;;;5030801;28;20029;-57
2021/09/04 03:42:52;;;;;;;0.60;0.35;;;21.70;74.40;;;;;;5022640;28;20052;-57
2021/09/04 03:45:18;;;;;;;0.57;0.25;;;21.60;74.30;;;;;;5028849;28;20051;-55
2021/09/04 03:47:45;;;;;;;0.95;0.90;;;21.70;74.50;;;;;;5024719;28;20083;-56
2021/09/04 03:50:12;;;;;;;0.13;0.13;;;21.60;74.30;;;;;;5031654;28;20021;-56
2021/09/04 03:52:38;;;;;;;0.17;0.17;;;21.60;74.20;;;;;;5026052;28;20029;-57
2021/09/04 03:55:05;;;;;;;0.35;0.30;;;21.60;74.20;;;;;;5021334;28;20045;-55
2021/09/04 03:57:32;;;;;;;0.00;0.00;;;21.60;74.20;;;;;;5029974;28;20041;-55
2021/09/04 03:59:58;;;;;;;0.38;0.38;;;21.60;74.30;;;;;;5034149;28;20439;-56
2021/09/04 04:02:25;;;;;;;0.10;0.10;;;21.60;74.20;;;;;;5032265;28;20052;-56
2021/09/04 04:04:51;;;;;;;0.03;0.03;;;21.60;74.10;;;;;;5027984;28;20105;-55
2021/09/04 04:07:18;;;;;;;0.00;0.00;;;21.50;74.20;;;;;;5032796;28;20116;-56
2021/09/04 04:09:44;;;;;;;0.10;0.10;;;21.50;74.00;;;;;;5034087;28;20030;-56
2021/09/04 04:12:11;;;;;;;0.10;0.10;;;21.50;74.10;;;;;;5037230;28;20025;-52
2021/09/04 04:14:37;;;;;;;0.13;0.13;;;21.50;74.10;;;;;;5027661;28;20064;-55
2021/09/04 04:17:03;;;;;;;0.20;0.10;;;21.50;74.00;;;;;;5037072;28;20026;-56
2021/09/04 04:19:30;;;;;;;0.03;0.03;;;21.50;74.10;;;;;;5023405;28;20026;-56
2021/09/04 04:21:56;;;;;;;0.30;0.13;;;21.50;74.10;;;;;;5026625;28;20034;-55
2021/09/04 04:24:23;;;;;;;0.00;0.00;;;21.50;74.00;;;;;;5026778;28;20096;-56
2021/09/04 04:26:49;;;;;;;0.00;0.00;;;21.50;74.00;;;;;;5036283;28;20416;-55
2021/09/04 04:29:16;;;;;;;0.00;0.00;;;21.40;74.00;;;;;;5031798;28;20382;-57
2021/09/04 04:31:42;;;;;;;1.55;1.08;;;21.50;74.00;;;;;;5031075;28;20026;-58
2021/09/04 04:34:08;;;;;;;1.85;0.95;;;21.40;74.10;;;;;;5042596;28;20341;-58
2021/09/04 04:36:35;;;;;;;0.25;0.25;;;21.50;74.20;;;;;;5038807;28;20103;-58
2021/09/04 04:39:02;;;;;;;0.00;0.00;;;21.40;74.20;;;;;;5036134;28;20029;-58
2021/09/04 04:41:28;;;;;;;0.17;0.17;;;21.40;74.30;;;;;;5037226;28;20470;-58
2021/09/04 04:43:55;;;;;;;0.32;0.20;;;21.40;74.20;;;;;;5040807;28;20347;-58
2021/09/04 04:46:21;;;;;;;0.63;0.63;;;21.40;74.80;;;;;;5034570;28;20463;-58
2021/09/04 04:48:48;;;;;;;3.03;0.60;;;21.50;74.30;;;;;;5030442;28;20407;-58
2021/09/04 04:51:14;;;;;;;0.00;0.00;;;21.40;74.90;;;;;;5019699;28;20034;-59
2021/09/04 04:53:40;;;;;;;0.00;0.00;;;21.30;74.40;;;;;;5043807;28;20104;-59
2021/09/04 04:56:07;;;;;;;0.73;0.38;;;21.30;74.50;;;;;;5056796;28;20025;-59
2021/09/04 04:58:33;;;;;;;0.10;0.10;;;21.30;74.60;;;;;;5056850;28;20558;-58
2021/09/04 05:00:59;;;;;;;0.10;0.10;;;21.30;74.70;;;;;;5026804;28;20116;-58
2021/09/04 05:03:26;;;;;;;0.55;0.55;;;21.30;74.80;;;;;;5045179;28;20022;-58
2021/09/04 05:05:52;;;;;;;0.40;0.40;;;21.20;74.80;;;;;;5027934;28;20022;-58
2021/09/04 05:08:19;;;;;;;4.18;0.98;;;21.20;74.80;;;;;;5034711;28;20367;-58
2021/09/04 05:10:45;;;;;;;0.40;0.40;;;21.20;74.90;;;;;;5035923;28;20441;-58
2021/09/04 05:13:12;;;;;;;0.03;0.03;;;21.20;74.90;;;;;;5035067;28;20030;-58
2021/09/04 05:15:38;;;;;;;0.55;0.55;;;21.20;75.00;;;;;;5034061;28;20025;-58
2021/09/04 05:18:04;;;;;;;0.25;0.20;;;21.20;74.90;;;;;;5032718;28;20134;-59
2021/09/04 05:20:31;;;;;;;0.65;0.30;;;21.20;75.00;;;;;;5033416;28;20021;-58
2021/09/04 05:22:57;;;;;;;0.43;0.43;;;21.20;75.20;;;;;;5033185;28;20045;-57
2021/09/04 05:25:24;;;;;;;0.00;0.00;;;21.20;75.30;;;;;;5034928;28;20025;-57
2021/09/04 05:27:50;;;;;;;0.47;0.47;;;21.20;75.40;;;;;;5025244;28;20038;-57
2021/09/04 05:30:17;;;;;;;0.52;0.32;;;21.20;75.40;;;;;;5035907;28;20048;-57
2021/09/04 05:32:43;;;;;;;0.43;0.13;;;21.20;75.40;;;;;;5034546;28;20029;-57
2021/09/04 05:35:09;;;;;;;0.52;0.45;;;21.20;75.50;;;;;;5031255;28;20036;-58
2021/09/04 05:37:36;;;;;;;0.15;0.15;;;21.20;75.40;;;;;;5034513;28;20087;-60
2021/09/04 05:40:03;;;;;;;0.22;0.22;;;21.20;75.40;;;;;;5017367;28;20018;-60
2021/09/04 05:42:29;;;;;;;0.00;0.00;;;21.20;75.60;;;;;;5031609;28;20477;-61
2021/09/04 05:44:56;;;;;;;0.32;0.32;;;21.20;76.10;;;;;;5022344;28;20034;-60
2021/09/04 05:47:22;;;;;;;0.13;0.13;;;21.30;75.60;;;;;;5032842;28;20117;-60
2021/09/04 05:49:49;;;;;;;0.25;0.25;;;21.20;75.50;;;;;;5031737;28;20071;-60
2021/09/04 05:52:15;;;;;;;0.30;0.30;;;21.30;75.70;;;;;;5032394;28;20186;-60
2021/09/04 05:54:41;;;;;;;0.08;0.08;;;21.30;75.70;;;;;;5031645;28;20367;-60
2021/09/04 05:57:08;;;;;;;0.00;0.00;;;21.30;75.70;;;;;;5026985;28;20455;-59
2021/09/04 05:59:34;;;;;;;0.65;0.30;;;21.20;75.60;;;;;;5023951;28;20053;-59
2021/09/04 06:02:00;;;;;;;0.00;0.00;;;21.30;75.70;;;;;;5024621;28;20021;-60
2021/09/04 06:04:27;;;;;;;0.60;0.60;;;21.20;75.70;;;;;;5035059;28;20033;-60
2021/09/04 06:06:53;;;;;;;0.15;0.15;;;21.20;75.70;;;;;;5033347;28;20028;-60
2021/09/04 06:09:22;;;;;;;0.00;0.00;;;21.20;75.70;;;;;;5028979;28;20079;-60
2021/09/04 06:11:49;;;;;;;0.00;0.00;;;21.20;75.80;;;;;;5031677;28;20021;-60
2021/09/04 06:14:15;;;;;;;0.10;0.10;;;21.20;75.80;;;;;;5031460;28;20017;-60
2021/09/04 06:16:42;;;;;;;0.00;0.00;;;21.20;75.80;;;;;;5033795;28;20021;-60
2021/09/04 06:19:08;;;;;;;0.15;0.10;;;21.20;75.90;;;;;;5029369;28;20048;-61
2021/09/04 06:21:34;;;;;;;0.00;0.00;;;21.20;76.00;;;;;;5018562;28;20029;-60
2021/09/04 06:24:01;;;;;;;0.10;0.10;;;21.20;75.90;;;;;;5030741;28;20029;-60
2021/09/04 06:26:27;;;;;;;0.00;0.00;;;21.20;76.00;;;;;;5032134;28;20045;-60
2021/09/04 06:28:54;;;;;;;0.17;0.15;;;21.20;76.00;;;;;;5032566;28;20033;-60
2021/09/04 06:31:20;;;;;;;0.03;0.03;;;21.10;75.90;;;;;;5029860;28;20494;-60
2021/09/04 06:33:46;;;;;;;0.00;0.00;;;21.10;75.90;;;;;;5034468;28;20028;-60
2021/09/04 06:36:13;;;;;;;0.45;0.45;;;21.10;75.90;;;;;;5028418;28;20021;-60
2021/09/04 06:38:39;;;;;;;1.55;0.10;;;21.10;76.00;;;;;;5026629;28;20029;-60
2021/09/04 06:41:07;;;;;;;0.00;0.00;;;21.10;76.00;;;;;;5035095;28;20363;-60
2021/09/04 06:43:33;;;;;;;3.42;0.75;;;21.10;76.00;;;;;;5035232;28;20467;-60
2021/09/04 06:45:59;;;;;;;0.10;0.03;;;21.10;76.00;;;;;;5034411;28;20109;-60
2021/09/04 06:48:26;;;;;;;0.00;0.00;;;21.10;76.00;;;;;;5023776;28;20042;-60
2021/09/04 06:50:52;;;;;;;0.20;0.20;;;21.10;76.10;;;;;;5025656;28;20112;-60
2021/09/04 06:53:18;;;;;;;0.28;0.28;;;21.10;76.10;;;;;;5021963;28;20083;-60
2021/09/04 06:55:46;;;;;;;0.00;0.00;;;21.10;76.10;;;;;;5031492;28;20040;-60
2021/09/04 06:58:12;;;;;;;0.00;0.00;;;21.10;76.60;;;;;;5030555;28;20062;-60
2021/09/04 07:00:38;;;;;;;0.00;0.00;;;21.00;76.10;;;;;;5027893;28;20028;-60
2021/09/04 07:03:05;;;;;;;0.10;0.10;;;21.00;76.10;;;;;;5034166;28;20024;-60
2021/09/04 07:05:31;;;;;;;0.20;0.20;;;21.00;76.10;;;;;;5031042;28;20025;-60
2021/09/04 07:07:57;;;;;;;0.00;0.00;;;21.00;76.20;;;;;;5015376;28;20364;-60
2021/09/04 07:10:24;;;;;;;0.40;0.30;;;21.00;76.20;;;;;;5029376;28;20124;-60
2021/09/04 07:12:50;;;;;;;0.00;0.00;;;21.00;76.20;;;;;;5026364;28;20036;-60
2021/09/04 07:15:17;;;;;;;0.10;0.10;;;21.00;76.20;;;;;;5020879;28;20033;-59
2021/09/04 07:17:43;;;;;;;0.28;0.28;;;21.00;76.20;;;;;;5032535;28;20049;-59
2021/09/04 07:20:10;;;;;;;0.00;0.00;;;20.90;76.10;;;;;;5031155;28;20040;-60
2021/09/04 07:22:36;;;;;;;0.00;0.00;;;20.90;76.10;;;;;;5026000;28;20378;-60
2021/09/04 07:25:03;;;;;;;0.00;0.00;;;20.90;76.20;;;;;;5031936;28;20021;-60
2021/09/04 07:27:30;;;;;;;0.10;0.10;;;20.90;76.10;;;;;;5024238;28;20480;-60
2021/09/04 07:29:56;;;;;;;0.40;0.40;;;20.90;76.10;;;;;;5025579;28;20033;-60
2021/09/04 07:32:23;;;;;;;0.20;0.20;;;20.90;76.20;;;;;;5032515;28;20061;-60
2021/09/04 07:34:50;;;;;;;0.08;0.08;;;20.90;76.20;;;;;;5028559;28;20463;-60
2021/09/04 07:37:16;;;;;;;0.00;0.00;;;20.90;76.20;;;;;;5033147;28;20371;-60
2021/09/04 07:39:43;;;;;;;0.00;0.00;;;20.90;76.10;;;;;;5032771;28;20029;-60
2021/09/04 07:42:09;;;;;;;0.30;0.22;;;20.90;76.10;;;;;;5026434;28;20159;-60
2021/09/04 07:44:35;;;;;;;0.13;0.13;;;20.90;76.20;;;;;;5030188;28;20033;-60
2021/09/04 07:47:02;;;;;;;0.00;0.00;;;20.90;76.10;;;;;;5016121;28;20432;-60
2021/09/04 07:49:28;;;;;;;0.00;0.00;;;20.90;76.10;;;;;;5032348;28;20025;-60
2021/09/04 07:51:55;;;;;;;1.23;0.25;;;20.80;76.10;;;;;;5032388;28;20120;-60
2021/09/04 07:54:22;;;;;;;0.00;0.00;;;20.90;76.10;;;;;;5031984;28;20032;-61
2021/09/04 07:56:48;;;;;;;0.03;0.03;;;20.90;76.10;;;;;;5028437;28;20033;-60
2021/09/04 07:59:14;;;;;;;0.00;0.00;;;20.80;76.20;;;;;;5022230;28;20028;-60
2021/09/04 08:01:41;;;;;;;0.40;0.32;;;20.80;76.20;;;;;;5014756;28;20353;-60
2021/09/04 08:04:07;;;;;;;0.10;0.10;;;20.80;76.10;;;;;;5022585;28;20039;-60
2021/09/04 08:06:34;;;;;;;0.00;0.00;;;20.80;76.10;;;;;;5033233;28;20029;-60
2021/09/04 08:09:00;;;;;;;0.00;0.00;;;20.80;76.10;;;;;;5032344;28;20030;-60
2021/09/04 08:11:26;;;;;;;0.00;0.00;;;20.80;76.20;;;;;;5031193;28;20040;-59
2021/09/04 08:13:53;;;;;;;0.55;0.32;;;20.80;76.10;;;;;;5021587;28;20694;-60
2021/09/04 08:16:20;;;;;;;0.00;0.00;;;20.80;76.10;;;;;;5033408;28;20402;-59
2021/09/04 08:18:46;;;;;;;0.00;0.00;;;20.80;76.10;;;;;;5031937;28;20025;-60
2021/09/04 08:21:12;;;;;;;0.00;0.00;;;20.80;76.00;;;;;;5027832;28;20018;-60
2021/09/04 08:23:39;;;;;;;0.47;0.20;;;20.70;76.00;;;;;;5018630;28;20022;-60
2021/09/04 08:26:05;;;;;;;0.55;0.10;;;20.70;76.00;;;;;;5032509;28;20018;-60
2021/09/04 08:28:32;;;;;;;9.43;0.32;;;20.70;76.00;;;;;;5033153;28;20040;-60
2021/09/04 08:30:58;;;;;;;1.38;0.30;;;20.70;76.00;;;;;;5027038;28;20360;-60
2021/09/04 08:33:24;;;;;;;8.00;0.50;;;20.70;76.00;;;;;;5032109;28;20348;-60
2021/09/04 08:35:51;;;;;;;0.00;0.00;;;20.70;76.00;;;;;;5032661;28;20025;-59
2021/09/04 08:38:17;;;;;;;0.00;0.00;;;20.70;76.00;;;;;;5020709;28;20336;-60
2021/09/04 08:40:46;;;;;;;0.00;0.00;;;20.70;76.00;;;;;;5025847;28;20025;-60
2021/09/04 08:43:12;;;;;;;0.43;0.10;;;20.70;76.00;;;;;;5022094;28;20037;-59
2021/09/04 08:45:39;;;;;;;0.00;0.00;;;20.60;75.90;;;;;;5030546;28;20024;-60
2021/09/04 08:48:09;;;;;;;0.00;0.00;;;20.60;75.90;;;;;;5033155;28;20151;-60
2021/09/04 08:50:36;;;;;;;0.05;0.05;;;20.60;75.90;;;;;;5025441;28;20034;-60
2021/09/04 08:53:04;;;;;;;0.00;0.00;;;20.60;75.90;;;;;;5022003;28;20101;-60
2021/09/04 08:55:30;;;;;;;0.00;0.00;;;20.60;75.90;;;;;;5033132;28;20448;-60
2021/09/04 08:57:57;;;;;;;0.10;0.10;;;20.60;75.80;;;;;;5027385;28;20052;-60
2021/09/04 09:00:32;;;;;;;0.00;0.00;;;20.60;75.90;;;;;;5033073;28;20037;-60
2021/09/04 09:03:00;;;;;;;0.10;0.10;;;20.50;76.00;;;;;;5023557;28;20028;-60
2021/09/04 09:05:39;;;;;;;0.00;0.00;;;20.60;75.90;;;;;;5033878;28;20386;-60
2021/09/04 09:08:06;;;;;;;0.25;0.20;;;20.60;75.90;;;;;;5024793;28;20017;-61
2021/09/04 09:10:37;;;;;;;0.00;0.00;;;20.50;75.80;;;;;;5036378;28;20041;-60
2021/09/04 09:13:05;;;;;;;0.00;0.00;;;20.50;75.80;;;;;;5037094;28;20032;-60
2021/09/04 09:15:34;;;;;;;0.00;0.00;;;20.50;75.80;;;;;;5027738;28;20400;-60
2021/09/04 09:18:09;;;;;;;0.85;0.38;;;20.50;75.80;;;;;;5036619;28;20072;-60
2021/09/04 09:20:36;;;;;;;0.00;0.00;;;20.50;75.70;;;;;;5031473;28;20450;-60
2021/09/04 09:23:18;;;;;;;0.00;0.00;;;20.50;75.70;;;;;;5031445;28;20075;-60
2021/09/04 09:25:46;;;;;;;0.00;0.00;;;20.50;75.80;;;;;;5033951;28;20053;-60
2021/09/04 09:28:13;;;;;;;0.00;0.00;;;20.40;75.70;;;;;;5029166;28;20022;-60
2021/09/04 09:30:48;;;;;;;0.10;0.10;;;20.40;75.70;;;;;;5016912;28;20515;-60
2021/09/04 09:33:17;;;;;;;0.00;0.00;;;20.40;75.70;;;;;;5022629;28;20043;-60
2021/09/04 09:35:48;;;;;;;0.52;0.25;;;20.40;75.70;;;;;;5025922;28;20052;-60
2021/09/04 09:38:18;;;;;;;0.00;0.00;;;20.50;75.80;;;;;;5036688;28;20032;-59
2021/09/04 09:40:45;;;;;;;0.00;0.00;;;20.40;75.70;;;;;;5024380;28;20025;-60
2021/09/04 09:43:22;;;;;;;0.03;0.00;;;20.40;75.80;;;;;;5029031;28;20022;-60
2021/09/04 09:45:56;;;;;;;0.10;0.10;;;20.40;75.70;;;;;;5017111;28;20014;-60
2021/09/04 09:48:25;;;;;;;0.03;0.03;;;20.40;75.70;;;;;;5016697;28;20048;-60
2021/09/04 09:50:53;;;;;;;2.28;0.10;;;20.40;75.70;;;;;;5025209;28;20045;-61
2021/09/04 09:53:22;;;;;;;0.20;0.20;;;20.30;75.70;;;;;;5026506;28;20037;-61
2021/09/04 09:55:50;;;;;;;0.00;0.00;;;20.30;75.70;;;;;;5030957;28;20049;-60
2021/09/04 09:58:18;;;;;;;0.00;0.00;;;20.30;75.50;;;;;;5030096;28;20069;-61
2021/09/04 10:00:44;;;;;;;0.10;0.10;;;20.30;75.70;;;;;;5034465;28;20101;-61
2021/09/04 10:03:13;;;;;;;0.35;0.20;;;20.20;75.70;;;;;;5023865;28;20072;-60
2021/09/04 10:05:40;;;;;;;0.15;0.15;;;20.20;75.80;;;;;;5023126;28;20053;-61
2021/09/04 10:08:07;;;;;;;0.00;0.00;;;20.20;75.80;;;;;;5018921;28;20325;-61
2021/09/04 10:10:37;;;;;;;0.10;0.10;;;20.10;75.80;;;;;;5027029;28;20056;-61
2021/09/04 10:13:05;;;;;;;0.10;0.10;;;20.20;75.80;;;;;;5029189;28;20024;-60
2021/09/04 10:15:35;;;;;;;0.30;0.10;;;20.20;75.80;;;;;;5027746;28;20482;-60
2021/09/04 10:18:06;;;;;;;0.00;0.00;;;20.10;75.80;;;;;;5023283;28;20040;-61
2021/09/04 10:20:34;;;;;;;0.00;0.00;;;20.10;75.90;;;;;;5019905;28;20096;-61
2021/09/04 10:23:34;;;;;;;0.00;0.00;;;20.10;75.90;;;;;;5021534;28;20508;-61
2021/09/04 10:26:27;;;;;;;0.00;0.00;;;20.10;75.90;;;;;;5035340;28;20057;-60
2021/09/04 10:29:07;;;;;;;0.17;0.10;;;20.10;76.00;;;;;;5033689;28;20029;-60
2021/09/04 10:32:02;;;;;;;0.00;0.00;;;20.10;76.00;;;;;;5031592;28;20030;-59
2021/09/04 10:34:38;;;;;;;0.00;0.00;;;20.10;76.00;;;;;;5022634;28;20034;-60
2021/09/04 10:37:11;;;;;;;0.10;0.10;;;20.00;76.00;;;;;;5027736;28;20396;-60
2021/09/04 10:39:59;;;;;;;0.00;0.00;;;20.00;76.00;;;;;;5018992;28;20045;-60
2021/09/04 10:42:31;;;;;;;0.00;0.00;;;20.00;76.10;;;;;;5015743;28;20113;-60
2021/09/04 10:45:10;;;;;;;0.00;0.00;;;20.00;76.20;;;;;;5020968;28;20021;-60
2021/09/04 10:47:50;;;;;;;0.00;0.00;;;20.10;76.20;;;;;;5015545;28;20463;-60
2021/09/04 10:50:21;;;;;;;0.00;0.00;;;20.00;76.20;;;;;;5021794;28;20038;-60
2021/09/04 10:52:52;;;;;;;0.00;0.00;;;20.00;76.20;;;;;;5023853;28;20741;-60
2021/09/04 10:55:32;;;;;;;0.00;0.00;;;20.10;76.20;;;;;;5016927;28;20033;-60
2021/09/04 10:58:13;;;;;;;0.00;0.00;;;20.10;76.20;;;;;;5018251;28;20017;-60
2021/09/04 11:00:47;;;;;;;0.00;0.00;;;20.00;76.20;;;;;;5024309;28;20036;-60
2021/09/04 11:03:21;;;;;;;0.00;0.00;;;20.10;76.20;;;;;;5015436;28;20026;-60
2021/09/04 11:05:56;;;;;;;0.05;0.05;;;20.00;76.30;;;;;;5024513;28;20018;-60
2021/09/04 11:08:30;;;;;;;0.00;0.00;;;20.10;76.30;;;;;;5016422;28;20026;-60
2021/09/04 11:11:15;;;;;;;0.00;0.00;;;20.00;76.30;;;;;;5015448;28;20034;-60
2021/09/04 11:13:48;;;;;;;0.00;0.00;;;20.00;76.50;;;;;;5017439;28;20454;-60
2021/09/04 11:16:42;;;;;;;0.00;0.00;;;20.00;76.50;;;;;;5015497;28;20421;-59
2021/09/04 11:19:24;;;;;;;0.00;0.00;;;20.00;76.50;;;;;;5015128;28;20040;-60
2021/09/04 11:22:12;;;;;;;0.52;0.52;;;20.00;76.50;;;;;;5022305;28;20026;-60
2021/09/04 11:24:44;;;;;;;0.22;0.17;;;20.00;76.50;;;;;;5020802;28;20026;-60
2021/09/04 11:27:15;;;;;;;0.00;0.00;;;20.00;76.60;;;;;;5031441;28;20097;-60
2021/09/04 11:29:47;;;;;;;0.00;0.00;;;20.00;76.70;;;;;;5015236;28;20443;-60
2021/09/04 11:32:15;;;;;;;0.10;0.10;;;20.00;76.70;;;;;;5015153;28;20372;-60
2021/09/04 11:34:55;;;;;;;0.00;0.00;;;20.00;76.70;;;;;;5021138;28;20025;-60
2021/09/04 11:37:22;;;;;;;0.10;0.10;;;20.00;76.70;;;;;;5014889;28;20448;-60
2021/09/04 11:40:10;;;;;;;0.95;0.73;;;20.00;76.80;;;;;;5026312;28;20018;-59
2021/09/04 11:42:42;;;;;;;0.00;0.00;;;20.00;76.90;;;;;;5029554;28;20164;-60
2021/09/04 11:45:09;;;;;;;0.75;0.10;;;20.00;76.90;;;;;;5030848;28;20102;-60
2021/09/04 11:47:38;;;;;;;0.22;0.22;;;20.00;77.00;;;;;;5026724;28;20030;-60
2021/09/04 11:50:10;;;;;;;0.00;0.00;;;20.00;77.00;;;;;;5030825;28;20044;-60
2021/09/04 11:52:39;;;;;;;0.85;0.20;;;20.00;77.10;;;;;;5023807;28;20034;-60
2021/09/04 11:55:10;;;;;;;0.17;0.10;;;20.00;77.10;;;;;;5022776;28;20021;-60
2021/09/04 11:57:39;;;;;;;0.00;0.00;;;20.00;77.20;;;;;;5025012;28;20022;-60
2021/09/04 12:00:09;;;;;;;0.05;0.05;;;20.00;77.30;;;;;;5033140;28;20014;-60
2021/09/04 12:02:45;;;;;;;0.00;0.00;;;20.00;77.40;;;;;;5029520;28;20036;-60
2021/09/04 12:05:13;;;;;;;0.05;0.05;;;20.00;77.40;;;;;;5020180;28;20040;-59
2021/09/04 12:07:40;;;;;;;0.57;0.10;;;20.00;77.50;;;;;;5033700;28;20028;-60
2021/09/04 12:10:08;;;;;;;0.00;0.00;;;20.00;77.50;;;;;;5025593;28;20029;-60
2021/09/04 12:12:35;;;;;;;0.73;0.38;;;20.00;77.60;;;;;;5034216;28;20026;-59
2021/09/04 12:15:03;;;;;;;0.00;0.00;;;20.00;77.80;;;;;;5028833;28;20053;-60
2021/09/04 12:17:29;;;;;;;0.47;0.47;;;19.90;78.00;;;;;;5030357;28;20030;-60
2021/09/04 12:20:08;;;;;;;0.00;0.00;;;19.90;78.00;;;;;;5015712;28;20031;-60
2021/09/04 12:22:34;;;;;;;0.00;0.00;;;19.90;78.00;;;;;;5016713;28;20025;-60
2021/09/04 12:25:01;;;;;;;0.00;0.00;;;20.00;78.10;;;;;;5027762;28;20455;-60
2021/09/04 12:27:41;;;;;;;0.00;0.00;;;19.90;78.10;;;;;;5022420;28;20033;-60
2021/09/04 12:30:08;;;;;;;0.55;0.52;;;20.00;78.10;;;;;;5034830;28;20026;-60
2021/09/04 12:32:38;;;;;;;0.00;0.00;;;20.00;78.20;;;;;;5031276;28;20068;-60
2021/09/04 12:35:06;;;;;;;0.00;0.00;;;20.00;78.20;;;;;;5021726;28;20037;-60
2021/09/04 12:37:33;;;;;;;0.00;0.00;;;20.00;78.80;;;;;;5023293;28;20028;-60
2021/09/04 12:40:25;;;;;;;0.25;0.25;;;20.00;78.30;;;;;;5035836;28;20028;-60
2021/09/04 12:43:01;;;;;;;0.13;0.13;;;20.00;78.40;;;;;;5030361;28;20034;-60
2021/09/04 12:45:27;;;;;;;0.00;0.00;;;20.00;78.40;;;;;;5028516;28;20059;-60
2021/09/04 12:47:54;;;;;;;0.63;0.63;;;20.00;78.90;;;;;;5030829;28;20090;-60
2021/09/04 12:50:25;;;;;;;0.10;0.08;;;20.00;78.50;;;;;;5027521;28;20038;-60
2021/09/04 12:53:04;;;;;;;;;;;20.00;78.60;;;;;;5032644;28;20040;-60